createdAt,value
2023-01-31T00:00:53.351Z,3.25
2023-01-31T00:05:54.021Z,3.28
2023-01-31T00:10:59.508Z,3.36
2023-01-31T00:16:00.462Z,3.34
2023-01-31T00:21:06.899Z,3.29
2023-01-31T00:26:11.600Z,3.43
2023-01-31T00:31:13.706Z,3.48
2023-01-31T00:36:16.552Z,3.60
2023-01-31T00:41:21.433Z,3.66
2023-01-31T00:46:23.799Z,3.69
2023-01-31T00:51:27.028Z,3.74
2023-01-31T00:56:29.233Z,3.68
2023-01-31T01:01:30.434Z,3.59
2023-01-31T01:06:31.471Z,3.51
2023-01-31T01:11:36.053Z,3.46
2023-01-31T01:16:39.299Z,3.34
2023-01-31T01:21:41.166Z,3.21
2023-01-31T01:26:44.050Z,3.18
2023-01-31T01:31:44.829Z,3.17
2023-01-31T01:36:48.025Z,3.11
2023-01-31T01:41:51.530Z,3.03
2023-01-31T01:46:53.195Z,2.88
2023-01-31T01:51:58.170Z,2.74
2023-01-31T01:57:04.519Z,2.74
2023-01-31T02:02:06.071Z,2.83
2023-01-31T02:07:10.109Z,2.95
2023-01-31T02:12:12.947Z,2.92
2023-01-31T02:17:14.883Z,2.94
2023-01-31T02:22:22.773Z,2.99
2023-01-31T02:27:43.707Z,3.01
2023-01-31T02:32:54.620Z,3.09
2023-01-31T02:38:09.587Z,3.25
2023-01-31T02:43:16.991Z,3.33
2023-01-31T02:48:29.984Z,3.37
2023-01-31T02:53:33.677Z,3.41
2023-01-31T02:58:40.456Z,3.47
2023-01-31T03:03:42.924Z,3.50
2023-01-31T03:08:45.847Z,3.50
2023-01-31T03:13:57.808Z,3.49
2023-01-31T03:19:13.885Z,3.45
2023-01-31T03:24:18.192Z,3.40
2023-01-31T03:29:19.981Z,3.31
2023-01-31T03:34:23.716Z,3.17
2023-01-31T03:39:36.183Z,2.98
2023-01-31T03:44:43.489Z,3.00
2023-01-31T03:49:47.380Z,3.00
2023-01-31T03:55:04.540Z,2.95
2023-01-31T04:00:09.346Z,2.74
2023-01-31T04:05:21.219Z,2.59
2023-01-31T04:10:27.159Z,2.50
2023-01-31T04:15:27.950Z,2.47
2023-01-31T04:20:30.077Z,2.50
2023-01-31T04:25:32.754Z,2.51
2023-01-31T04:30:34.136Z,2.40
2023-01-31T04:35:36.591Z,2.26
2023-01-31T04:40:37.311Z,2.16
2023-01-31T04:45:37.957Z,2.21
2023-01-31T04:50:39.955Z,2.30
2023-01-31T04:55:40.599Z,2.42
2023-01-31T05:00:41.282Z,2.60
2023-01-31T05:05:43.314Z,2.79
2023-01-31T05:10:44.809Z,2.87
2023-01-31T05:15:49.289Z,2.97
2023-01-31T05:20:51.281Z,3.00
2023-01-31T05:25:51.935Z,3.05
2023-01-31T05:30:53.062Z,3.06
2023-01-31T05:35:55.460Z,3.05
2023-01-31T05:40:56.129Z,3.09
2023-01-31T05:45:56.905Z,3.09
2023-01-31T05:50:58.974Z,3.05
2023-01-31T05:55:59.904Z,2.97
2023-01-31T06:01:01.118Z,2.87
2023-01-31T06:06:05.162Z,2.82
2023-01-31T06:11:06.838Z,2.80
2023-01-31T06:16:08.880Z,2.94
2023-01-31T06:21:12.183Z,2.98
2023-01-31T06:26:13.000Z,3.03
2023-01-31T06:31:13.944Z,3.07
2023-01-31T06:36:18.943Z,3.10
2023-01-31T06:41:21.048Z,3.12
2023-01-31T06:46:22.072Z,3.10
2023-01-31T06:51:24.300Z,2.83
2023-01-31T06:56:25.124Z,2.76
2023-01-31T07:01:26.764Z,2.73
2023-01-31T07:06:29.008Z,2.79
2023-01-31T07:11:30.160Z,2.84
2023-01-31T07:16:31.282Z,2.91
2023-01-31T07:21:33.479Z,2.98
2023-01-31T07:26:35.042Z,3.11
2023-01-31T07:31:35.866Z,3.20
2023-01-31T07:36:37.914Z,3.30
2023-01-31T07:41:38.624Z,3.32
2023-01-31T07:46:42.105Z,3.40
2023-01-31T07:51:44.210Z,3.35
2023-01-31T07:56:44.971Z,3.37
2023-01-31T08:02:03.162Z,3.45
2023-01-31T08:07:06.975Z,3.28
2023-01-31T08:12:08.606Z,3.27
2023-01-31T08:17:10.320Z,3.34
2023-01-31T08:22:12.571Z,3.57
2023-01-31T08:27:13.217Z,3.87
2023-01-31T08:32:13.957Z,4.08
2023-01-31T08:37:17.422Z,4.07
2023-01-31T08:42:19.201Z,4.04
2023-01-31T08:47:19.883Z,4.01
2023-01-31T08:52:21.947Z,4.09
2023-01-31T08:57:22.626Z,4.21
2023-01-31T09:02:23.575Z,4.31
2023-01-31T09:07:25.718Z,4.35
2023-01-31T09:12:26.455Z,4.42
2023-01-31T09:17:27.126Z,4.43
2023-01-31T09:22:31.508Z,4.38
2023-01-31T09:27:32.257Z,4.38
2023-01-31T09:32:33.438Z,4.60
2023-01-31T09:37:35.472Z,4.77
2023-01-31T09:42:40.117Z,4.88
2023-01-31T09:47:45.274Z,4.95
2023-01-31T09:52:47.346Z,5.01
2023-01-31T09:57:56.713Z,4.96
2023-01-31T10:03:20.945Z,5.09
2023-01-31T10:08:36.739Z,5.25
2023-01-31T10:13:40.166Z,5.28
2023-01-31T10:18:46.664Z,5.38
2023-01-31T10:23:53.906Z,5.29
2023-01-31T10:29:01.419Z,5.26
2023-01-31T10:34:08.007Z,5.18
2023-01-31T10:39:18.614Z,5.22
2023-01-31T10:44:25.580Z,5.18
2023-01-31T10:49:28.100Z,5.24
2023-01-31T10:54:43.889Z,5.23
2023-01-31T10:59:47.654Z,5.04
2023-01-31T11:04:50.889Z,5.20
2023-01-31T11:09:55.639Z,5.18
2023-01-31T11:15:08.065Z,5.18
2023-01-31T11:20:22.267Z,5.30
2023-01-31T11:25:26.850Z,5.25
2023-01-31T11:30:30.512Z,5.20
2023-01-31T11:35:33.028Z,5.37
2023-01-31T11:40:36.800Z,5.53
2023-01-31T11:45:39.659Z,5.56
2023-01-31T11:50:42.227Z,5.67
2023-01-31T11:55:45.427Z,5.84
2023-01-31T12:00:54.566Z,5.86
2023-01-31T12:06:02.269Z,5.94
2023-01-31T12:11:08.148Z,6.00
2023-01-31T12:16:09.015Z,5.92
2023-01-31T12:21:15.657Z,5.64
2023-01-31T12:26:23.332Z,5.83
2023-01-31T12:31:39.183Z,6.01
2023-01-31T12:36:57.002Z,5.95
2023-01-31T12:42:14.383Z,5.80
2023-01-31T12:47:46.360Z,5.63
2023-01-31T12:52:57.054Z,5.57
2023-01-31T12:58:20.137Z,5.23
2023-01-31T13:03:39.041Z,5.26
2023-01-31T13:08:42.348Z,5.35
2023-01-31T13:13:50.138Z,5.15
2023-01-31T13:18:53.391Z,5.05
2023-01-31T13:23:59.512Z,4.98
2023-01-31T13:29:07.031Z,4.98
2023-01-31T13:34:14.798Z,4.68
2023-01-31T13:39:21.991Z,4.57
2023-01-31T13:44:24.026Z,4.34
2023-01-31T13:49:27.862Z,4.20
2023-01-31T13:54:34.072Z,4.33
2023-01-31T13:59:38.667Z,4.39
2023-01-31T14:04:40.582Z,4.42
2023-01-31T14:09:45.835Z,4.37
2023-01-31T14:14:51.267Z,4.40
2023-01-31T14:20:25.917Z,4.38
2023-01-31T14:25:42.525Z,4.28
2023-01-31T14:30:47.689Z,4.31
2023-01-31T14:36:15.250Z,4.36
2023-01-31T14:41:25.936Z,4.36
2023-01-31T14:47:05.831Z,4.34
2023-01-31T14:52:29.404Z,4.27
2023-01-31T14:57:32.828Z,4.22
2023-01-31T15:03:04.231Z,4.22
2023-01-31T15:08:28.067Z,4.19
2023-01-31T15:13:38.586Z,4.18
2023-01-31T15:18:41.819Z,4.14
2023-01-31T15:23:44.319Z,4.15
2023-01-31T15:28:46.115Z,4.11
2023-01-31T15:33:52.392Z,4.05
2023-01-31T15:38:56.866Z,3.98
2023-01-31T15:44:12.938Z,3.93
2023-01-31T15:49:40.022Z,3.93
2023-01-31T15:54:53.384Z,3.93
2023-01-31T15:59:55.094Z,3.92
2023-01-31T16:04:57.942Z,3.84
2023-01-31T16:10:02.002Z,3.77
2023-01-31T16:15:07.001Z,3.76
2023-01-31T16:20:38.245Z,3.78
2023-01-31T16:25:39.116Z,3.78
2023-01-31T16:30:41.477Z,3.78
2023-01-31T16:35:44.179Z,3.87
2023-01-31T16:40:48.884Z,3.82
2023-01-31T16:45:54.206Z,3.88
2023-01-31T16:50:58.858Z,3.85
2023-01-31T16:56:19.921Z,3.93
2023-01-31T17:01:23.710Z,3.92
2023-01-31T17:06:25.865Z,4.01
2023-01-31T17:11:41.655Z,4.05
2023-01-31T17:16:43.592Z,3.98
2023-01-31T17:21:46.069Z,4.02
2023-01-31T17:26:46.957Z,3.95
2023-01-31T17:31:47.750Z,4.07
2023-01-31T17:36:49.784Z,4.06
2023-01-31T17:41:51.527Z,4.15
2023-01-31T17:46:52.189Z,4.20
2023-01-31T17:51:54.249Z,4.25
2023-01-31T17:56:55.265Z,4.20
2023-01-31T18:01:56.174Z,4.23
2023-01-31T18:06:58.312Z,4.28
2023-01-31T18:11:59.011Z,4.39
2023-01-31T18:16:59.683Z,4.48
2023-01-31T18:22:01.719Z,4.52
2023-01-31T18:27:02.408Z,4.69
2023-01-31T18:32:06.198Z,4.71
2023-01-31T18:37:13.612Z,4.82
2023-01-31T18:42:14.570Z,4.89
2023-01-31T18:47:16.183Z,4.95
2023-01-31T18:52:18.474Z,4.95
2023-01-31T18:57:19.227Z,5.05
2023-01-31T19:02:20.050Z,5.11
2023-01-31T19:07:22.247Z,5.09
2023-01-31T19:12:23.072Z,5.10
2023-01-31T19:17:23.823Z,5.10
2023-01-31T19:22:28.604Z,5.02
2023-01-31T19:27:29.379Z,5.11
2023-01-31T19:32:31.316Z,5.03
2023-01-31T19:37:33.390Z,5.04
2023-01-31T19:42:34.222Z,5.06
2023-01-31T19:47:34.913Z,5.17
2023-01-31T19:52:37.371Z,5.25
2023-01-31T19:57:38.107Z,5.33
2023-01-31T20:02:42.034Z,5.39
2023-01-31T20:07:44.099Z,5.33
2023-01-31T20:12:45.490Z,5.20
2023-01-31T20:17:46.375Z,5.15
2023-01-31T20:22:48.687Z,5.10
2023-01-31T20:27:49.609Z,4.83
2023-01-31T20:32:50.620Z,4.58
2023-01-31T20:37:52.749Z,4.35
2023-01-31T20:42:53.479Z,4.30
2023-01-31T20:47:54.180Z,4.40
2023-01-31T20:52:57.094Z,4.44
2023-01-31T20:57:58.637Z,4.61
2023-01-31T21:02:59.311Z,4.71
2023-01-31T21:08:01.341Z,4.78
2023-01-31T21:13:02.024Z,4.82
2023-01-31T21:18:02.741Z,4.63
2023-01-31T21:23:04.751Z,4.54
2023-01-31T21:28:05.914Z,4.34
2023-01-31T21:33:06.648Z,4.18
2023-01-31T21:38:08.648Z,4.03
2023-01-31T21:43:09.334Z,3.90
2023-01-31T21:48:30.265Z,3.97
2023-01-31T21:53:32.376Z,4.15
2023-01-31T21:58:33.805Z,4.27
2023-01-31T22:03:35.846Z,4.43
2023-01-31T22:08:37.897Z,4.53
2023-01-31T22:13:39.079Z,4.64
2023-01-31T22:18:41.419Z,4.77
2023-01-31T22:23:48.298Z,4.79
2023-01-31T22:28:49.921Z,4.94
2023-01-31T22:33:51.107Z,5.12
2023-01-31T22:38:54.077Z,5.19
2023-01-31T22:43:55.963Z,5.20
2023-01-31T22:48:57.484Z,5.23
2023-01-31T22:53:59.696Z,5.30
2023-01-31T22:59:02.565Z,5.26
2023-01-31T23:04:06.139Z,5.32
2023-01-31T23:09:08.342Z,5.37
2023-01-31T23:14:09.175Z,5.34
2023-01-31T23:19:10.124Z,5.35
2023-01-31T23:24:14.467Z,5.32
2023-01-31T23:29:15.610Z,5.30
2023-01-31T23:34:16.279Z,5.20
2023-01-31T23:39:18.253Z,5.25
2023-01-31T23:44:18.909Z,5.23
2023-01-31T23:49:19.587Z,5.20
2023-01-31T23:54:21.574Z,5.14
2023-01-31T23:59:22.206Z,5.08
